sensor_id;sensor_type;location;lat;lon;timestamp;temperature;humidity
38936;DHT22;66589;47.458;9.644;2023-07-02T03:18:47;18.60;99.90
38936;DHT22;66589;47.458;9.644;2023-07-02T03:21:13;18.60;99.90
38936;DHT22;66589;47.458;9.644;2023-07-02T03:23:39;18.50;99.90
38936;DHT22;66589;47.458;9.644;2023-07-02T03:26:05;18.40;99.90
38936;DHT22;66589;47.458;9.644;2023-07-02T03:28:31;18.40;99.90
38936;DHT22;66589;47.458;9.644;2023-07-02T03:30:59;18.40;99.90
38936;DHT22;66589;47.458;9.644;2023-07-02T03:33:24;18.40;99.90
38936;DHT22;66589;47.458;9.644;2023-07-02T03:35:50;18.40;99.90
38936;DHT22;66589;47.458;9.644;2023-07-02T03:38:15;18.40;99.90
38936;DHT22;66589;47.458;9.644;2023-07-02T03:40:41;18.40;99.90
38936;DHT22;66589;47.458;9.644;2023-07-02T03:43:07;18.40;99.90
38936;DHT22;66589;47.458;9.644;2023-07-02T03:45:32;18.40;99.90
38936;DHT22;66589;47.458;9.644;2023-07-02T03:47:58;18.30;99.90
38936;DHT22;66589;47.458;9.644;2023-07-02T03:50:24;18.20;99.90
38936;DHT22;66589;47.458;9.644;2023-07-02T03:52:49;18.20;99.90
38936;DHT22;66589;47.458;9.644;2023-07-02T03:55:15;18.10;99.90
38936;DHT22;66589;47.458;9.644;2023-07-02T03:57:41;18.10;99.90
38936;DHT22;66589;47.458;9.644;2023-07-02T04:00:07;18.20;99.90
38936;DHT22;66589;47.458;9.644;2023-07-02T04:02:33;18.20;99.90
38936;DHT22;66589;47.458;9.644;2023-07-02T04:04:58;18.30;99.90
38936;DHT22;66589;47.458;9.644;2023-07-02T04:07:24;18.30;99.90
38936;DHT22;66589;47.458;9.644;2023-07-02T04:09:50;18.30;99.90
38936;DHT22;66589;47.458;9.644;2023-07-02T04:12:15;18.40;99.90
38936;DHT22;66589;47.458;9.644;2023-07-02T04:14:41;18.40;99.90
38936;DHT22;66589;47.458;9.644;2023-07-02T04:17:08;18.40;99.90
38936;DHT22;66589;47.458;9.644;2023-07-02T04:19:33;18.40;99.90
38936;DHT22;66589;47.458;9.644;2023-07-02T04:21:59;18.30;99.90
38936;DHT22;66589;47.458;9.644;2023-07-02T04:24:25;18.30;99.90
38936;DHT22;66589;47.458;9.644;2023-07-02T04:26:51;18.30;99.90
38936;DHT22;66589;47.458;9.644;2023-07-02T04:29:17;18.30;99.90
38936;DHT22;66589;47.458;9.644;2023-07-02T04:31:43;18.20;99.90
38936;DHT22;66589;47.458;9.644;2023-07-02T04:34:08;18.30;99.90
38936;DHT22;66589;47.458;9.644;2023-07-02T04:36:34;18.20;99.90
38936;DHT22;66589;47.458;9.644;2023-07-02T04:38:59;18.30;99.90
38936;DHT22;66589;47.458;9.644;2023-07-02T04:41:26;18.30;99.90
38936;DHT22;66589;47.458;9.644;2023-07-02T04:43:52;18.30;99.90
38936;DHT22;66589;47.458;9.644;2023-07-02T04:46:18;18.20;99.90
38936;DHT22;66589;47.458;9.644;2023-07-02T04:48:44;18.20;99.90
38936;DHT22;66589;47.458;9.644;2023-07-02T04:51:09;18.20;99.90
38936;DHT22;66589;47.458;9.644;2023-07-02T04:53:35;18.20;99.90
38936;DHT22;66589;47.458;9.644;2023-07-02T04:56:03;18.20;99.90
38936;DHT22;66589;47.458;9.644;2023-07-02T04:58:28;18.20;99.90
38936;DHT22;66589;47.458;9.644;2023-07-02T05:00:54;18.20;99.90
38936;DHT22;66589;47.458;9.644;2023-07-02T05:03:20;18.20;99.90
38936;DHT22;66589;47.458;9.644;2023-07-02T05:05:45;18.20;99.90
38936;DHT22;66589;47.458;9.644;2023-07-02T05:08:11;18.30;99.90
38936;DHT22;66589;47.458;9.644;2023-07-02T05:10:37;18.40;99.90
38936;DHT22;66589;47.458;9.644;2023-07-02T05:13:02;18.30;99.90
38936;DHT22;66589;47.458;9.644;2023-07-02T05:15:28;18.30;99.90
38936;DHT22;66589;47.458;9.644;2023-07-02T05:17:54;18.30;99.90
38936;DHT22;66589;47.458;9.644;2023-07-02T05:20:19;18.40;99.90
38936;DHT22;66589;47.458;9.644;2023-07-02T05:22:45;18.40;99.90
38936;DHT22;66589;47.458;9.644;2023-07-02T05:25:11;18.30;99.90
38936;DHT22;66589;47.458;9.644;2023-07-02T05:27:36;18.30;99.90
38936;DHT22;66589;47.458;9.644;2023-07-02T05:30:02;18.20;99.90
38936;DHT22;66589;47.458;9.644;2023-07-02T05:32:28;18.30;99.90
38936;DHT22;66589;47.458;9.644;2023-07-02T05:34:54;18.30;99.90
38936;DHT22;66589;47.458;9.644;2023-07-02T05:37:19;18.30;99.90
38936;DHT22;66589;47.458;9.644;2023-07-02T05:39:45;18.30;99.90
38936;DHT22;66589;47.458;9.644;2023-07-02T05:42:11;18.30;98.80
38936;DHT22;66589;47.458;9.644;2023-07-02T05:44:36;18.30;99.10
38936;DHT22;66589;47.458;9.644;2023-07-02T05:47:02;18.30;99.90
38936;DHT22;66589;47.458;9.644;2023-07-02T05:49:28;18.30;98.90
38936;DHT22;66589;47.458;9.644;2023-07-02T05:51:53;18.30;98.80
38936;DHT22;66589;47.458;9.644;2023-07-02T05:54:19;18.40;98.10
38936;DHT22;66589;47.458;9.644;2023-07-02T05:56:45;18.50;97.40
38936;DHT22;66589;47.458;9.644;2023-07-02T05:59:10;18.50;98.70
38936;DHT22;66589;47.458;9.644;2023-07-02T06:01:37;18.50;98.80
38936;DHT22;66589;47.458;9.644;2023-07-02T06:04:03;18.50;97.70
38936;DHT22;66589;47.458;9.644;2023-07-02T06:06:29;18.50;96.70
38936;DHT22;66589;47.458;9.644;2023-07-02T06:08:54;18.40;98.00
38936;DHT22;66589;47.458;9.644;2023-07-02T06:11:20;18.40;97.40
38936;DHT22;66589;47.458;9.644;2023-07-02T06:13:46;18.40;97.40
38936;DHT22;66589;47.458;9.644;2023-07-02T06:16:11;18.50;96.70
38936;DHT22;66589;47.458;9.644;2023-07-02T06:18:37;18.50;96.30
38936;DHT22;66589;47.458;9.644;2023-07-02T06:21:03;18.50;96.70
38936;DHT22;66589;47.458;9.644;2023-07-02T06:23:30;18.60;96.90
38936;DHT22;66589;47.458;9.644;2023-07-02T06:25:55;18.70;97.00
38936;DHT22;66589;47.458;9.644;2023-07-02T06:28:25;18.80;96.80
38936;DHT22;66589;47.458;9.644;2023-07-02T06:30:51;18.90;96.10
38936;DHT22;66589;47.458;9.644;2023-07-02T06:33:17;18.80;95.50
38936;DHT22;66589;47.458;9.644;2023-07-02T06:35:43;18.90;96.70
38936;DHT22;66589;47.458;9.644;2023-07-02T06:38:08;19.00;96.00
38936;DHT22;66589;47.458;9.644;2023-07-02T06:40:34;19.00;94.90
38936;DHT22;66589;47.458;9.644;2023-07-02T06:43:00;19.00;95.00
38936;DHT22;66589;47.458;9.644;2023-07-02T06:45:25;19.20;94.10
38936;DHT22;66589;47.458;9.644;2023-07-02T06:47:51;19.30;94.00
38936;DHT22;66589;47.458;9.644;2023-07-02T06:50:17;19.30;94.20
38936;DHT22;66589;47.458;9.644;2023-07-02T06:52:42;19.30;94.60
38936;DHT22;66589;47.458;9.644;2023-07-02T06:55:08;19.30;93.90
38936;DHT22;66589;47.458;9.644;2023-07-02T06:57:34;19.40;93.90
38936;DHT22;66589;47.458;9.644;2023-07-02T07:00:00;19.40;93.70
38936;DHT22;66589;47.458;9.644;2023-07-02T07:02:26;19.50;94.10
38936;DHT22;66589;47.458;9.644;2023-07-02T07:04:52;19.50;94.00
38936;DHT22;66589;47.458;9.644;2023-07-02T07:07:18;19.60;94.40
38936;DHT22;66589;47.458;9.644;2023-07-02T07:09:44;19.60;92.40
38936;DHT22;66589;47.458;9.644;2023-07-02T07:12:10;19.70;93.10
38936;DHT22;66589;47.458;9.644;2023-07-02T07:14:36;19.70;94.00
38936;DHT22;66589;47.458;9.644;2023-07-02T07:17:04;19.70;92.80
38936;DHT22;66589;47.458;9.644;2023-07-02T07:19:30;19.70;92.90
38936;DHT22;66589;47.458;9.644;2023-07-02T07:21:56;19.80;92.90
38936;DHT22;66589;47.458;9.644;2023-07-02T07:24:21;19.90;92.90
38936;DHT22;66589;47.458;9.644;2023-07-02T07:26:47;19.90;93.00
38936;DHT22;66589;47.458;9.644;2023-07-02T07:29:13;19.90;92.70
38936;DHT22;66589;47.458;9.644;2023-07-02T07:31:38;19.70;91.90
38936;DHT22;66589;47.458;9.644;2023-07-02T07:34:05;19.70;92.60
38936;DHT22;66589;47.458;9.644;2023-07-02T07:36:30;19.80;92.70
38936;DHT22;66589;47.458;9.644;2023-07-02T07:38:56;19.90;92.40
38936;DHT22;66589;47.458;9.644;2023-07-02T07:41:21;20.00;92.30
38936;DHT22;66589;47.458;9.644;2023-07-02T07:43:47;20.10;92.20
38936;DHT22;66589;47.458;9.644;2023-07-02T07:46:13;20.20;90.70
38936;DHT22;66589;47.458;9.644;2023-07-02T07:48:39;20.20;92.10
38936;DHT22;66589;47.458;9.644;2023-07-02T07:51:04;20.30;91.40
38936;DHT22;66589;47.458;9.644;2023-07-02T07:53:30;20.40;90.20
38936;DHT22;66589;47.458;9.644;2023-07-02T07:55:55;20.50;89.20
38936;DHT22;66589;47.458;9.644;2023-07-02T07:58:21;20.60;90.00
38936;DHT22;66589;47.458;9.644;2023-07-02T08:00:47;20.80;90.20
38936;DHT22;66589;47.458;9.644;2023-07-02T08:03:12;20.90;88.40
38936;DHT22;66589;47.458;9.644;2023-07-02T08:05:38;21.10;88.30
38936;DHT22;66589;47.458;9.644;2023-07-02T08:08:04;21.20;86.60
38936;DHT22;66589;47.458;9.644;2023-07-02T08:10:29;21.20;85.80
38936;DHT22;66589;47.458;9.644;2023-07-02T08:12:55;21.00;85.80
38936;DHT22;66589;47.458;9.644;2023-07-02T08:15:21;20.90;86.60
38936;DHT22;66589;47.458;9.644;2023-07-02T08:17:47;20.80;86.00
38936;DHT22;66589;47.458;9.644;2023-07-02T08:20:13;20.80;86.80
38936;DHT22;66589;47.458;9.644;2023-07-02T08:22:39;20.70;87.00
38936;DHT22;66589;47.458;9.644;2023-07-02T08:25:06;20.60;87.60
38936;DHT22;66589;47.458;9.644;2023-07-02T08:27:32;20.50;87.80
38936;DHT22;66589;47.458;9.644;2023-07-02T08:29:58;20.40;89.00
38936;DHT22;66589;47.458;9.644;2023-07-02T08:32:23;20.40;89.00
38936;DHT22;66589;47.458;9.644;2023-07-02T08:34:49;20.40;88.60
38936;DHT22;66589;47.458;9.644;2023-07-02T08:37:16;20.40;89.60
38936;DHT22;66589;47.458;9.644;2023-07-02T08:39:42;20.40;90.00
38936;DHT22;66589;47.458;9.644;2023-07-02T08:42:08;20.40;90.20
38936;DHT22;66589;47.458;9.644;2023-07-02T08:44:34;20.40;90.80
38936;DHT22;66589;47.458;9.644;2023-07-02T08:47:01;20.40;90.40
38936;DHT22;66589;47.458;9.644;2023-07-02T08:49:27;20.50;90.20
38936;DHT22;66589;47.458;9.644;2023-07-02T08:51:53;20.50;90.60
38936;DHT22;66589;47.458;9.644;2023-07-02T08:54:19;20.50;89.50
38936;DHT22;66589;47.458;9.644;2023-07-02T08:56:45;20.60;88.00
38936;DHT22;66589;47.458;9.644;2023-07-02T08:59:12;20.70;88.50
38936;DHT22;66589;47.458;9.644;2023-07-02T09:01:52;20.80;88.10
38936;DHT22;66589;47.458;9.644;2023-07-02T09:04:28;20.80;88.30
38936;DHT22;66589;47.458;9.644;2023-07-02T09:07:07;20.80;87.30
38936;DHT22;66589;47.458;9.644;2023-07-02T09:09:47;20.80;87.70
38936;DHT22;66589;47.458;9.644;2023-07-02T09:12:29;20.90;87.50
38936;DHT22;66589;47.458;9.644;2023-07-02T09:14:58;20.90;87.10
38936;DHT22;66589;47.458;9.644;2023-07-02T09:17:31;20.90;88.20
38936;DHT22;66589;47.458;9.644;2023-07-02T09:19:58;20.90;88.30
38936;DHT22;66589;47.458;9.644;2023-07-02T09:22:27;20.90;88.30
38936;DHT22;66589;47.458;9.644;2023-07-02T09:24:55;20.90;89.40
38936;DHT22;66589;47.458;9.644;2023-07-02T09:27:34;20.90;89.00
38936;DHT22;66589;47.458;9.644;2023-07-02T09:30:09;20.90;90.00
38936;DHT22;66589;47.458;9.644;2023-07-02T09:32:35;20.90;90.10
38936;DHT22;66589;47.458;9.644;2023-07-02T09:35:01;21.10;89.70
38936;DHT22;66589;47.458;9.644;2023-07-02T09:37:27;21.50;88.90
38936;DHT22;66589;47.458;9.644;2023-07-02T09:39:55;21.70;86.30
38936;DHT22;66589;47.458;9.644;2023-07-02T09:42:21;22.00;84.80
38936;DHT22;66589;47.458;9.644;2023-07-02T09:44:48;22.00;84.60
38936;DHT22;66589;47.458;9.644;2023-07-02T09:47:18;21.90;84.30
38936;DHT22;66589;47.458;9.644;2023-07-02T09:50:03;21.90;84.30
38936;DHT22;66589;47.458;9.644;2023-07-02T09:52:32;22.20;83.90
38936;DHT22;66589;47.458;9.644;2023-07-02T09:54:59;22.60;82.50
38936;DHT22;66589;47.458;9.644;2023-07-02T09:57:25;22.70;81.20
38936;DHT22;66589;47.458;9.644;2023-07-02T09:59:52;22.80;81.10
38936;DHT22;66589;47.458;9.644;2023-07-02T10:02:18;22.90;80.50
38936;DHT22;66589;47.458;9.644;2023-07-02T10:04:45;22.90;80.40
38936;DHT22;66589;47.458;9.644;2023-07-02T10:07:12;22.80;79.40
38936;DHT22;66589;47.458;9.644;2023-07-02T10:09:39;22.70;79.60
38936;DHT22;66589;47.458;9.644;2023-07-02T10:12:24;22.60;80.00
38936;DHT22;66589;47.458;9.644;2023-07-02T10:14:52;22.30;79.30
38936;DHT22;66589;47.458;9.644;2023-07-02T10:19:58;22.30;80.50
38936;DHT22;66589;47.458;9.644;2023-07-02T10:22:25;22.30;80.80
38936;DHT22;66589;47.458;9.644;2023-07-02T10:24:58;22.30;80.60
38936;DHT22;66589;47.458;9.644;2023-07-02T10:27:36;22.30;81.50
38936;DHT22;66589;47.458;9.644;2023-07-02T10:30:03;22.40;80.70
38936;DHT22;66589;47.458;9.644;2023-07-02T10:32:30;22.30;82.10
38936;DHT22;66589;47.458;9.644;2023-07-02T10:34:56;22.20;81.80
38936;DHT22;66589;47.458;9.644;2023-07-02T10:37:24;22.30;81.30
38936;DHT22;66589;47.458;9.644;2023-07-02T10:39:49;22.40;80.00
38936;DHT22;66589;47.458;9.644;2023-07-02T10:42:17;22.30;80.70
38936;DHT22;66589;47.458;9.644;2023-07-02T10:44:52;22.20;80.90
38936;DHT22;66589;47.458;9.644;2023-07-02T10:47:19;22.20;81.60
38936;DHT22;66589;47.458;9.644;2023-07-02T10:49:45;22.30;81.40
38936;DHT22;66589;47.458;9.644;2023-07-02T10:52:10;22.40;80.40
38936;DHT22;66589;47.458;9.644;2023-07-02T10:54:40;22.50;79.00
38936;DHT22;66589;47.458;9.644;2023-07-02T10:57:09;22.60;79.30
38936;DHT22;66589;47.458;9.644;2023-07-02T10:59:35;22.70;79.30
38936;DHT22;66589;47.458;9.644;2023-07-02T11:02:01;23.00;78.10
38936;DHT22;66589;47.458;9.644;2023-07-02T11:04:27;23.50;77.00
38936;DHT22;66589;47.458;9.644;2023-07-02T11:06:54;24.20;76.70
38936;DHT22;66589;47.458;9.644;2023-07-02T11:09:20;24.90;73.60
38936;DHT22;66589;47.458;9.644;2023-07-02T11:11:57;25.30;71.50
38936;DHT22;66589;47.458;9.644;2023-07-02T11:16:56;25.80;69.40
38936;DHT22;66589;47.458;9.644;2023-07-02T11:19:22;26.00;68.10
38936;DHT22;66589;47.458;9.644;2023-07-02T11:21:54;25.80;68.00
38936;DHT22;66589;47.458;9.644;2023-07-02T11:24:37;25.50;68.60
38936;DHT22;66589;47.458;9.644;2023-07-02T11:27:04;25.20;68.60
38936;DHT22;66589;47.458;9.644;2023-07-02T11:29:31;25.30;69.00
38936;DHT22;66589;47.458;9.644;2023-07-02T11:32:10;25.10;68.60
38936;DHT22;66589;47.458;9.644;2023-07-02T11:34:36;24.90;69.30
38936;DHT22;66589;47.458;9.644;2023-07-02T11:37:02;24.70;69.80
38936;DHT22;66589;47.458;9.644;2023-07-02T11:39:29;24.50;71.10
38936;DHT22;66589;47.458;9.644;2023-07-02T11:41:55;24.30;72.30
38936;DHT22;66589;47.458;9.644;2023-07-02T11:44:21;24.40;72.70
38936;DHT22;66589;47.458;9.644;2023-07-02T11:46:47;24.60;71.60
38936;DHT22;66589;47.458;9.644;2023-07-02T11:49:13;24.60;70.60
38936;DHT22;66589;47.458;9.644;2023-07-02T11:51:40;24.70;71.10
38936;DHT22;66589;47.458;9.644;2023-07-02T11:54:06;24.60;71.70
38936;DHT22;66589;47.458;9.644;2023-07-02T11:56:33;24.70;71.00
38936;DHT22;66589;47.458;9.644;2023-07-02T11:58:59;25.00;71.00
38936;DHT22;66589;47.458;9.644;2023-07-02T12:01:25;25.40;70.10
38936;DHT22;66589;47.458;9.644;2023-07-02T12:03:51;25.90;69.30
38936;DHT22;66589;47.458;9.644;2023-07-02T12:06:17;26.00;66.90
38936;DHT22;66589;47.458;9.644;2023-07-02T12:08:42;25.90;67.20
38936;DHT22;66589;47.458;9.644;2023-07-02T12:11:08;25.80;66.90
38936;DHT22;66589;47.458;9.644;2023-07-02T12:13:34;25.50;67.50
38936;DHT22;66589;47.458;9.644;2023-07-02T12:15:59;25.40;67.10
38936;DHT22;66589;47.458;9.644;2023-07-02T12:18:25;25.10;67.90
38936;DHT22;66589;47.458;9.644;2023-07-02T12:20:51;24.80;68.50
38936;DHT22;66589;47.458;9.644;2023-07-02T12:23:16;24.80;68.70
38936;DHT22;66589;47.458;9.644;2023-07-02T12:25:42;24.80;68.60
38936;DHT22;66589;47.458;9.644;2023-07-02T12:28:08;24.60;69.60
38936;DHT22;66589;47.458;9.644;2023-07-02T12:30:33;24.50;69.30
38936;DHT22;66589;47.458;9.644;2023-07-02T12:32:59;24.30;70.10
38936;DHT22;66589;47.458;9.644;2023-07-02T12:35:25;24.10;70.50
38936;DHT22;66589;47.458;9.644;2023-07-02T12:37:52;24.30;72.00
38936;DHT22;66589;47.458;9.644;2023-07-02T12:40:19;24.60;71.20
38936;DHT22;66589;47.458;9.644;2023-07-02T12:42:46;24.70;68.90
38936;DHT22;66589;47.458;9.644;2023-07-02T12:45:13;24.60;69.60
38936;DHT22;66589;47.458;9.644;2023-07-02T12:47:40;24.70;69.20
38936;DHT22;66589;47.458;9.644;2023-07-02T12:50:07;25.00;70.50
38936;DHT22;66589;47.458;9.644;2023-07-02T12:52:33;25.30;69.60
38936;DHT22;66589;47.458;9.644;2023-07-02T12:54:59;25.60;70.20
38936;DHT22;66589;47.458;9.644;2023-07-02T12:57:25;25.60;67.00
38936;DHT22;66589;47.458;9.644;2023-07-02T12:59:54;25.20;66.70
38936;DHT22;66589;47.458;9.644;2023-07-02T13:02:21;25.00;68.50
38936;DHT22;66589;47.458;9.644;2023-07-02T13:04:47;24.80;68.60
38936;DHT22;66589;47.458;9.644;2023-07-02T13:07:13;24.80;68.50
38936;DHT22;66589;47.458;9.644;2023-07-02T13:09:39;24.80;69.10
38936;DHT22;66589;47.458;9.644;2023-07-02T13:12:05;24.90;67.50
38936;DHT22;66589;47.458;9.644;2023-07-02T13:14:31;25.10;68.10
38936;DHT22;66589;47.458;9.644;2023-07-02T13:16:57;25.30;69.60
38936;DHT22;66589;47.458;9.644;2023-07-02T13:19:28;25.60;69.70
38936;DHT22;66589;47.458;9.644;2023-07-02T13:21:54;25.90;68.60
38936;DHT22;66589;47.458;9.644;2023-07-02T13:24:20;26.20;67.20
38936;DHT22;66589;47.458;9.644;2023-07-02T13:26:45;26.30;66.50
38936;DHT22;66589;47.458;9.644;2023-07-02T13:29:11;26.40;64.20
38936;DHT22;66589;47.458;9.644;2023-07-02T13:31:37;26.70;66.70
38936;DHT22;66589;47.458;9.644;2023-07-02T13:34:03;26.80;66.20
38936;DHT22;66589;47.458;9.644;2023-07-02T13:36:28;26.80;62.70
38936;DHT22;66589;47.458;9.644;2023-07-02T13:38:54;26.70;63.30
38936;DHT22;66589;47.458;9.644;2023-07-02T13:41:21;26.70;62.40
38936;DHT22;66589;47.458;9.644;2023-07-02T13:43:47;26.50;62.40
38936;DHT22;66589;47.458;9.644;2023-07-02T13:46:12;26.40;62.50
38936;DHT22;66589;47.458;9.644;2023-07-02T13:48:38;26.30;63.00
38936;DHT22;66589;47.458;9.644;2023-07-02T13:51:04;26.40;65.60
38936;DHT22;66589;47.458;9.644;2023-07-02T13:53:30;26.30;64.10
38936;DHT22;66589;47.458;9.644;2023-07-02T13:55:56;26.10;63.40
38936;DHT22;66589;47.458;9.644;2023-07-02T13:58:22;26.00;64.20
38936;DHT22;66589;47.458;9.644;2023-07-02T14:00:48;25.90;64.50
38936;DHT22;66589;47.458;9.644;2023-07-02T14:03:14;25.60;64.80
38936;DHT22;66589;47.458;9.644;2023-07-02T14:05:40;25.50;66.60
38936;DHT22;66589;47.458;9.644;2023-07-02T14:08:06;25.50;65.90
38936;DHT22;66589;47.458;9.644;2023-07-02T14:10:32;25.30;65.10
38936;DHT22;66589;47.458;9.644;2023-07-02T14:12:57;25.40;65.60
38936;DHT22;66589;47.458;9.644;2023-07-02T14:15:24;25.70;64.10
38936;DHT22;66589;47.458;9.644;2023-07-02T14:17:50;25.80;64.10
38936;DHT22;66589;47.458;9.644;2023-07-02T14:20:16;26.00;64.40
38936;DHT22;66589;47.458;9.644;2023-07-02T14:22:42;26.50;65.20
38936;DHT22;66589;47.458;9.644;2023-07-02T14:25:08;26.40;63.50
38936;DHT22;66589;47.458;9.644;2023-07-02T14:27:33;26.10;64.60
38936;DHT22;66589;47.458;9.644;2023-07-02T14:29:59;25.90;65.60
38936;DHT22;66589;47.458;9.644;2023-07-02T14:32:26;25.80;64.90
38936;DHT22;66589;47.458;9.644;2023-07-02T14:34:52;25.70;63.90
38936;DHT22;66589;47.458;9.644;2023-07-02T14:37:17;25.60;64.20
38936;DHT22;66589;47.458;9.644;2023-07-02T14:39:43;25.50;64.10
38936;DHT22;66589;47.458;9.644;2023-07-02T14:42:09;25.50;65.80
38936;DHT22;66589;47.458;9.644;2023-07-02T14:44:34;25.80;66.40
38936;DHT22;66589;47.458;9.644;2023-07-02T14:47:00;26.30;64.60
38936;DHT22;66589;47.458;9.644;2023-07-02T14:49:26;26.60;63.30
38936;DHT22;66589;47.458;9.644;2023-07-02T14:51:51;26.80;63.40
38936;DHT22;66589;47.458;9.644;2023-07-02T14:54:17;26.90;64.90
38936;DHT22;66589;47.458;9.644;2023-07-02T14:56:43;26.90;62.60
38936;DHT22;66589;47.458;9.644;2023-07-02T14:59:13;26.80;62.20
38936;DHT22;66589;47.458;9.644;2023-07-02T15:01:39;26.70;62.10
38936;DHT22;66589;47.458;9.644;2023-07-02T15:04:05;26.60;61.00
38936;DHT22;66589;47.458;9.644;2023-07-02T15:06:32;26.50;62.60
38936;DHT22;66589;47.458;9.644;2023-07-02T15:08:58;26.50;62.00
38936;DHT22;66589;47.458;9.644;2023-07-02T15:11:23;26.50;62.60
38936;DHT22;66589;47.458;9.644;2023-07-02T15:13:49;26.30;63.00
38936;DHT22;66589;47.458;9.644;2023-07-02T15:16:15;26.30;63.40
38936;DHT22;66589;47.458;9.644;2023-07-02T15:18:41;26.20;64.30
38936;DHT22;66589;47.458;9.644;2023-07-02T15:21:06;26.20;64.70
38936;DHT22;66589;47.458;9.644;2023-07-02T15:23:32;26.30;64.10
38936;DHT22;66589;47.458;9.644;2023-07-02T15:26:00;26.40;62.90
38936;DHT22;66589;47.458;9.644;2023-07-02T15:28:27;26.50;63.50
38936;DHT22;66589;47.458;9.644;2023-07-02T15:30:55;26.70;61.20
38936;DHT22;66589;47.458;9.644;2023-07-02T15:33:22;27.00;61.10
38936;DHT22;66589;47.458;9.644;2023-07-02T15:35:48;27.20;60.00
38936;DHT22;66589;47.458;9.644;2023-07-02T15:38:14;27.30;59.30
38936;DHT22;66589;47.458;9.644;2023-07-02T15:40:40;27.30;59.50
38936;DHT22;66589;47.458;9.644;2023-07-02T15:43:05;27.20;61.30
38936;DHT22;66589;47.458;9.644;2023-07-02T15:45:31;27.20;60.70
38936;DHT22;66589;47.458;9.644;2023-07-02T15:47:57;27.10;61.00
38936;DHT22;66589;47.458;9.644;2023-07-02T15:50:26;26.90;61.20
38936;DHT22;66589;47.458;9.644;2023-07-02T15:52:51;27.00;60.50
38936;DHT22;66589;47.458;9.644;2023-07-02T15:55:18;26.80;61.50
38936;DHT22;66589;47.458;9.644;2023-07-02T15:57:44;26.60;62.20
38936;DHT22;66589;47.458;9.644;2023-07-02T16:00:10;26.50;60.50
38936;DHT22;66589;47.458;9.644;2023-07-02T16:02:36;26.50;59.40
38936;DHT22;66589;47.458;9.644;2023-07-02T16:05:02;26.50;60.70
38936;DHT22;66589;47.458;9.644;2023-07-02T16:07:28;26.60;61.20
38936;DHT22;66589;47.458;9.644;2023-07-02T16:09:53;26.80;59.40
38936;DHT22;66589;47.458;9.644;2023-07-02T16:12:19;26.80;59.00
38936;DHT22;66589;47.458;9.644;2023-07-02T16:14:45;26.60;59.30
38936;DHT22;66589;47.458;9.644;2023-07-02T16:17:10;26.50;60.90
38936;DHT22;66589;47.458;9.644;2023-07-02T16:19:36;26.50;60.40
38936;DHT22;66589;47.458;9.644;2023-07-02T16:22:02;26.30;60.50
38936;DHT22;66589;47.458;9.644;2023-07-02T16:24:30;26.10;63.10
38936;DHT22;66589;47.458;9.644;2023-07-02T16:26:56;26.00;61.70
38936;DHT22;66589;47.458;9.644;2023-07-02T16:29:24;25.80;62.60
38936;DHT22;66589;47.458;9.644;2023-07-02T16:31:56;25.70;61.60
38936;DHT22;66589;47.458;9.644;2023-07-02T16:34:23;25.70;61.70
38936;DHT22;66589;47.458;9.644;2023-07-02T16:36:50;25.70;62.40
38936;DHT22;66589;47.458;9.644;2023-07-02T16:39:16;25.70;62.30
38936;DHT22;66589;47.458;9.644;2023-07-02T16:41:43;25.70;62.00
38936;DHT22;66589;47.458;9.644;2023-07-02T16:44:40;25.80;63.20
38936;DHT22;66589;47.458;9.644;2023-07-02T16:47:06;26.00;60.40
38936;DHT22;66589;47.458;9.644;2023-07-02T16:49:32;26.10;60.00
38936;DHT22;66589;47.458;9.644;2023-07-02T16:51:58;26.10;60.00
38936;DHT22;66589;47.458;9.644;2023-07-02T16:54:24;26.20;59.90
38936;DHT22;66589;47.458;9.644;2023-07-02T16:57:08;26.10;59.70
38936;DHT22;66589;47.458;9.644;2023-07-02T16:59:34;26.20;60.30
38936;DHT22;66589;47.458;9.644;2023-07-02T17:02:07;26.20;59.70
38936;DHT22;66589;47.458;9.644;2023-07-02T17:04:34;26.10;59.70
38936;DHT22;66589;47.458;9.644;2023-07-02T17:07:00;25.80;62.20
38936;DHT22;66589;47.458;9.644;2023-07-02T17:09:31;25.80;63.80
38936;DHT22;66589;47.458;9.644;2023-07-02T17:12:10;25.70;62.60
38936;DHT22;66589;47.458;9.644;2023-07-02T17:14:40;25.70;63.20
38936;DHT22;66589;47.458;9.644;2023-07-02T17:17:13;25.60;62.90
38936;DHT22;66589;47.458;9.644;2023-07-02T17:19:41;25.50;62.80
38936;DHT22;66589;47.458;9.644;2023-07-02T17:22:12;25.50;65.60
38936;DHT22;66589;47.458;9.644;2023-07-02T17:24:40;25.70;64.20
38936;DHT22;66589;47.458;9.644;2023-07-02T17:27:09;25.90;62.80
38936;DHT22;66589;47.458;9.644;2023-07-02T17:29:35;26.10;63.20
38936;DHT22;66589;47.458;9.644;2023-07-02T17:32:03;26.30;63.60
38936;DHT22;66589;47.458;9.644;2023-07-02T17:34:30;26.50;62.10
38936;DHT22;66589;47.458;9.644;2023-07-02T17:36:59;26.70;61.40
38936;DHT22;66589;47.458;9.644;2023-07-02T17:39:25;26.70;62.30
38936;DHT22;66589;47.458;9.644;2023-07-02T17:41:53;26.70;61.40
38936;DHT22;66589;47.458;9.644;2023-07-02T17:44:23;26.60;62.90
38936;DHT22;66589;47.458;9.644;2023-07-02T17:46:52;26.50;62.60
38936;DHT22;66589;47.458;9.644;2023-07-02T17:49:19;26.40;61.70
38936;DHT22;66589;47.458;9.644;2023-07-02T17:51:44;26.30;62.20
38936;DHT22;66589;47.458;9.644;2023-07-02T17:54:10;26.20;63.70
38936;DHT22;66589;47.458;9.644;2023-07-02T17:56:36;26.10;62.00
38936;DHT22;66589;47.458;9.644;2023-07-02T17:59:02;25.80;63.10
38936;DHT22;66589;47.458;9.644;2023-07-02T18:01:28;25.70;64.00
38936;DHT22;66589;47.458;9.644;2023-07-02T18:03:53;25.50;64.30
38936;DHT22;66589;47.458;9.644;2023-07-02T18:06:21;25.40;64.80
38936;DHT22;66589;47.458;9.644;2023-07-02T18:08:47;25.40;65.20
38936;DHT22;66589;47.458;9.644;2023-07-02T18:11:12;25.30;65.70
38936;DHT22;66589;47.458;9.644;2023-07-02T18:13:38;25.10;67.30
38936;DHT22;66589;47.458;9.644;2023-07-02T18:16:04;25.00;67.80
38936;DHT22;66589;47.458;9.644;2023-07-02T18:18:30;24.90;66.90
38936;DHT22;66589;47.458;9.644;2023-07-02T18:20:56;24.70;67.20
38936;DHT22;66589;47.458;9.644;2023-07-02T18:23:21;24.60;66.40
38936;DHT22;66589;47.458;9.644;2023-07-02T18:25:53;24.50;66.60
38936;DHT22;66589;47.458;9.644;2023-07-02T18:28:19;24.50;66.60
38936;DHT22;66589;47.458;9.644;2023-07-02T18:30:46;24.40;66.80
38936;DHT22;66589;47.458;9.644;2023-07-02T18:33:12;24.40;67.90
38936;DHT22;66589;47.458;9.644;2023-07-02T18:35:38;24.40;66.90
38936;DHT22;66589;47.458;9.644;2023-07-02T18:38:04;24.40;66.20
38936;DHT22;66589;47.458;9.644;2023-07-02T18:40:30;24.30;66.40
38936;DHT22;66589;47.458;9.644;2023-07-02T18:42:56;24.20;68.30
38936;DHT22;66589;47.458;9.644;2023-07-02T18:45:22;24.10;67.30
38936;DHT22;66589;47.458;9.644;2023-07-02T18:47:48;24.00;67.00
38936;DHT22;66589;47.458;9.644;2023-07-02T18:50:15;24.00;69.30